sensor_id;sensor_type;location;lat;lon;timestamp;pressure;altitude;pressure_sealevel;temperature;humidity
80482;BME280;69797;43.864;21.410;2023-12-29T00:01:57;100754.81;;;5.36;77.52
80482;BME280;69797;43.864;21.410;2023-12-29T00:04:26;100744.00;;;5.20;78.26
80482;BME280;69797;43.864;21.410;2023-12-29T00:06:53;100759.97;;;5.23;78.52
80482;BME280;69797;43.864;21.410;2023-12-29T00:09:28;100756.22;;;5.16;78.76
80482;BME280;69797;43.864;21.410;2023-12-29T00:11:55;100770.09;;;5.29;78.41
80482;BME280;69797;43.864;21.410;2023-12-29T00:14:22;100774.88;;;5.19;77.40
80482;BME280;69797;43.864;21.410;2023-12-29T00:16:49;100772.88;;;5.13;77.76
80482;BME280;69797;43.864;21.410;2023-12-29T00:19:16;100781.88;;;5.13;78.14
80482;BME280;69797;43.864;21.410;2023-12-29T00:21:43;100772.34;;;5.01;78.69
80482;BME280;69797;43.864;21.410;2023-12-29T00:24:10;100767.44;;;4.96;79.45
80482;BME280;69797;43.864;21.410;2023-12-29T00:26:37;100791.03;;;5.04;79.02
80482;BME280;69797;43.864;21.410;2023-12-29T00:29:03;100794.06;;;5.01;79.58
80482;BME280;69797;43.864;21.410;2023-12-29T00:31:32;100769.81;;;4.83;79.79
80482;BME280;69797;43.864;21.410;2023-12-29T00:33:59;100796.66;;;4.94;78.90
80482;BME280;69797;43.864;21.410;2023-12-29T00:36:26;100794.25;;;4.99;79.35
80482;BME280;69797;43.864;21.410;2023-12-29T00:38:53;100794.44;;;4.98;79.53
80482;BME280;69797;43.864;21.410;2023-12-29T00:41:19;100790.19;;;4.79;79.43
80482;BME280;69797;43.864;21.410;2023-12-29T00:43:46;100800.03;;;4.55;79.77
80482;BME280;69797;43.864;21.410;2023-12-29T00:46:14;100786.94;;;4.26;80.66
80482;BME280;69797;43.864;21.410;2023-12-29T00:48:44;100779.94;;;4.07;80.83
80482;BME280;69797;43.864;21.410;2023-12-29T00:51:11;100792.81;;;4.05;80.59
80482;BME280;69797;43.864;21.410;2023-12-29T00:53:38;100807.72;;;4.09;79.90
80482;BME280;69797;43.864;21.410;2023-12-29T00:56:11;100775.97;;;3.85;78.86
80482;BME280;69797;43.864;21.410;2023-12-29T00:58:38;100803.44;;;3.91;81.37
80482;BME280;69797;43.864;21.410;2023-12-29T01:01:07;100799.69;;;3.83;80.89
80482;BME280;69797;43.864;21.410;2023-12-29T01:03:35;100807.25;;;3.72;83.88
80482;BME280;69797;43.864;21.410;2023-12-29T01:06:02;100802.28;;;3.59;82.79
80482;BME280;69797;43.864;21.410;2023-12-29T01:08:29;100775.41;;;3.40;82.80
80482;BME280;69797;43.864;21.410;2023-12-29T01:10:55;100796.81;;;3.51;84.23
80482;BME280;69797;43.864;21.410;2023-12-29T01:13:22;100798.66;;;3.50;83.76
80482;BME280;69797;43.864;21.410;2023-12-29T01:15:49;100791.25;;;3.52;85.21
80482;BME280;69797;43.864;21.410;2023-12-29T01:18:16;100798.34;;;3.53;84.70
80482;BME280;69797;43.864;21.410;2023-12-29T01:20:43;100803.16;;;3.68;85.23
80482;BME280;69797;43.864;21.410;2023-12-29T01:23:10;100781.78;;;3.56;85.35
80482;BME280;69797;43.864;21.410;2023-12-29T01:25:37;100783.31;;;3.59;85.13
80482;BME280;69797;43.864;21.410;2023-12-29T01:28:04;100800.09;;;3.63;85.50
80482;BME280;69797;43.864;21.410;2023-12-29T01:30:31;100805.19;;;3.66;84.97
80482;BME280;69797;43.864;21.410;2023-12-29T01:32:58;100770.72;;;3.50;84.48
80482;BME280;69797;43.864;21.410;2023-12-29T01:35:25;100776.31;;;3.48;84.79
80482;BME280;69797;43.864;21.410;2023-12-29T01:37:52;100793.44;;;3.57;84.54
80482;BME280;69797;43.864;21.410;2023-12-29T01:40:19;100767.53;;;3.54;84.21
80482;BME280;69797;43.864;21.410;2023-12-29T01:42:45;100784.72;;;3.71;83.29
80482;BME280;69797;43.864;21.410;2023-12-29T01:45:22;100773.03;;;3.71;81.79
80482;BME280;69797;43.864;21.410;2023-12-29T01:47:50;100770.53;;;3.85;80.82
80482;BME280;69797;43.864;21.410;2023-12-29T01:50:19;100780.09;;;3.98;81.44
80482;BME280;69797;43.864;21.410;2023-12-29T01:52:48;100772.63;;;4.00;82.80
80482;BME280;69797;43.864;21.410;2023-12-29T01:55:18;100773.16;;;4.12;82.82
80482;BME280;69797;43.864;21.410;2023-12-29T01:57:46;100763.50;;;4.17;82.41
80482;BME280;69797;43.864;21.410;2023-12-29T02:00:15;100771.84;;;4.40;81.63
80482;BME280;69797;43.864;21.410;2023-12-29T02:02:44;100777.31;;;4.48;80.58
80482;BME280;69797;43.864;21.410;2023-12-29T02:05:13;100773.06;;;4.62;79.03
80482;BME280;69797;43.864;21.410;2023-12-29T02:07:42;100751.53;;;4.61;77.46
80482;BME280;69797;43.864;21.410;2023-12-29T02:10:09;100777.66;;;4.78;77.35
80482;BME280;69797;43.864;21.410;2023-12-29T02:12:40;100757.44;;;4.72;76.52
80482;BME280;69797;43.864;21.410;2023-12-29T02:15:08;100778.16;;;4.81;75.99
80482;BME280;69797;43.864;21.410;2023-12-29T02:17:43;100763.38;;;4.76;75.93
80482;BME280;69797;43.864;21.410;2023-12-29T02:20:11;100771.88;;;4.65;75.70
80482;BME280;69797;43.864;21.410;2023-12-29T02:22:38;100774.25;;;4.60;76.52
80482;BME280;69797;43.864;21.410;2023-12-29T02:25:05;100766.44;;;4.48;77.55
80482;BME280;69797;43.864;21.410;2023-12-29T02:27:46;100768.81;;;4.43;77.54
80482;BME280;69797;43.864;21.410;2023-12-29T02:30:38;100765.94;;;4.45;77.30
80482;BME280;69797;43.864;21.410;2023-12-29T02:33:12;100760.84;;;4.42;77.30
80482;BME280;69797;43.864;21.410;2023-12-29T02:35:43;100745.91;;;4.29;76.99
80482;BME280;69797;43.864;21.410;2023-12-29T02:38:11;100761.69;;;4.42;76.94
80482;BME280;69797;43.864;21.410;2023-12-29T02:40:38;100745.56;;;4.32;77.74
80482;BME280;69797;43.864;21.410;2023-12-29T02:43:04;100750.66;;;4.36;77.12
80482;BME280;69797;43.864;21.410;2023-12-29T02:45:31;100722.84;;;4.17;77.06
80482;BME280;69797;43.864;21.410;2023-12-29T02:47:58;100723.53;;;4.19;77.00
80482;BME280;69797;43.864;21.410;2023-12-29T02:50:26;100733.34;;;4.28;76.72
80482;BME280;69797;43.864;21.410;2023-12-29T02:52:53;100734.53;;;4.26;76.82
80482;BME280;69797;43.864;21.410;2023-12-29T02:55:20;100714.19;;;4.14;76.58
80482;BME280;69797;43.864;21.410;2023-12-29T02:57:48;100729.81;;;4.20;76.04
80482;BME280;69797;43.864;21.410;2023-12-29T03:00:15;100712.66;;;4.03;75.71
80482;BME280;69797;43.864;21.410;2023-12-29T03:02:45;100735.19;;;4.12;76.06
80482;BME280;69797;43.864;21.410;2023-12-29T03:05:12;100731.13;;;4.07;75.67
80482;BME280;69797;43.864;21.410;2023-12-29T03:07:40;100720.09;;;4.01;75.91
80482;BME280;69797;43.864;21.410;2023-12-29T03:10:08;100728.59;;;4.06;76.34
80482;BME280;69797;43.864;21.410;2023-12-29T03:12:35;100728.06;;;3.94;76.86
80482;BME280;69797;43.864;21.410;2023-12-29T03:15:02;100703.91;;;3.58;76.93
80482;BME280;69797;43.864;21.410;2023-12-29T03:17:29;100717.09;;;3.53;77.78
80482;BME280;69797;43.864;21.410;2023-12-29T03:19:56;100711.78;;;3.44;78.20
80482;BME280;69797;43.864;21.410;2023-12-29T03:22:23;100700.94;;;3.35;78.94
80482;BME280;69797;43.864;21.410;2023-12-29T03:24:50;100714.03;;;3.48;78.24
80482;BME280;69797;43.864;21.410;2023-12-29T03:27:17;100726.44;;;3.59;77.29
80482;BME280;69797;43.864;21.410;2023-12-29T03:29:43;100735.22;;;3.61;76.95
80482;BME280;69797;43.864;21.410;2023-12-29T03:32:10;100728.31;;;3.67;76.92
80482;BME280;69797;43.864;21.410;2023-12-29T03:34:37;100726.94;;;3.63;76.50
80482;BME280;69797;43.864;21.410;2023-12-29T03:37:04;100737.16;;;3.77;76.60
80482;BME280;69797;43.864;21.410;2023-12-29T03:39:31;100737.69;;;3.80;75.91
80482;BME280;69797;43.864;21.410;2023-12-29T03:42:03;100727.19;;;3.85;75.19
80482;BME280;69797;43.864;21.410;2023-12-29T03:44:30;100731.94;;;3.83;75.53
80482;BME280;69797;43.864;21.410;2023-12-29T03:46:56;100713.41;;;3.71;75.47
80482;BME280;69797;43.864;21.410;2023-12-29T03:49:23;100719.88;;;3.78;75.71
80482;BME280;69797;43.864;21.410;2023-12-29T03:51:50;100724.78;;;3.82;75.75
80482;BME280;69797;43.864;21.410;2023-12-29T03:54:17;100729.03;;;3.85;75.79
80482;BME280;69797;43.864;21.410;2023-12-29T03:56:46;100729.75;;;3.87;75.55
80482;BME280;69797;43.864;21.410;2023-12-29T03:59:13;100732.41;;;3.79;75.05
80482;BME280;69797;43.864;21.410;2023-12-29T04:01:40;100722.06;;;3.66;75.50
80482;BME280;69797;43.864;21.410;2023-12-29T04:04:07;100710.19;;;3.59;75.58
80482;BME280;69797;43.864;21.410;2023-12-29T04:06:34;100729.69;;;3.71;75.49
80482;BME280;69797;43.864;21.410;2023-12-29T04:09:00;100735.81;;;3.81;75.37
80482;BME280;69797;43.864;21.410;2023-12-29T04:11:27;100721.75;;;3.77;75.01
80482;BME280;69797;43.864;21.410;2023-12-29T04:13:54;100730.06;;;3.84;74.54
80482;BME280;69797;43.864;21.410;2023-12-29T04:16:21;100735.16;;;3.87;75.00
80482;BME280;69797;43.864;21.410;2023-12-29T04:18:47;100723.09;;;3.81;73.99
80482;BME280;69797;43.864;21.410;2023-12-29T04:21:15;100730.91;;;3.84;74.94
80482;BME280;69797;43.864;21.410;2023-12-29T04:23:42;100720.91;;;3.77;74.44
80482;BME280;69797;43.864;21.410;2023-12-29T04:26:09;100729.69;;;3.79;74.53
80482;BME280;69797;43.864;21.410;2023-12-29T04:28:36;100724.44;;;3.69;75.43
80482;BME280;69797;43.864;21.410;2023-12-29T04:31:03;100736.31;;;3.76;76.29
80482;BME280;69797;43.864;21.410;2023-12-29T04:33:30;100729.47;;;3.64;76.23
80482;BME280;69797;43.864;21.410;2023-12-29T04:35:57;100730.31;;;3.65;76.21
80482;BME280;69797;43.864;21.410;2023-12-29T04:38:24;100730.19;;;3.66;76.31
80482;BME280;69797;43.864;21.410;2023-12-29T04:40:50;100716.59;;;3.58;76.80
80482;BME280;69797;43.864;21.410;2023-12-29T04:43:17;100706.56;;;3.50;76.38
80482;BME280;69797;43.864;21.410;2023-12-29T04:45:44;100730.50;;;3.63;76.75
80482;BME280;69797;43.864;21.410;2023-12-29T04:48:11;100735.41;;;3.68;76.17
80482;BME280;69797;43.864;21.410;2023-12-29T04:50:38;100732.88;;;3.66;75.87
80482;BME280;69797;43.864;21.410;2023-12-29T04:53:05;100735.06;;;3.63;75.80
80482;BME280;69797;43.864;21.410;2023-12-29T04:55:32;100739.16;;;3.67;75.89
80482;BME280;69797;43.864;21.410;2023-12-29T04:57:59;100733.34;;;3.61;75.88
80482;BME280;69797;43.864;21.410;2023-12-29T05:00:26;100732.84;;;3.58;76.04
80482;BME280;69797;43.864;21.410;2023-12-29T05:02:53;100734.19;;;3.54;76.40
80482;BME280;69797;43.864;21.410;2023-12-29T05:05:20;100718.19;;;3.34;76.78
80482;BME280;69797;43.864;21.410;2023-12-29T05:07:47;100727.34;;;3.33;77.61
80482;BME280;69797;43.864;21.410;2023-12-29T05:10:14;100728.50;;;3.31;76.96
80482;BME280;69797;43.864;21.410;2023-12-29T05:12:41;100712.22;;;2.97;77.23
80482;BME280;69797;43.864;21.410;2023-12-29T05:15:08;100732.16;;;2.87;78.23
80482;BME280;69797;43.864;21.410;2023-12-29T05:17:34;100722.34;;;2.69;79.63
80482;BME280;69797;43.864;21.410;2023-12-29T05:20:01;100731.16;;;2.71;79.54
80482;BME280;69797;43.864;21.410;2023-12-29T05:22:28;100744.38;;;2.74;79.46
80482;BME280;69797;43.864;21.410;2023-12-29T05:24:55;100740.97;;;2.72;79.46
80482;BME280;69797;43.864;21.410;2023-12-29T05:27:26;100722.84;;;2.64;79.23
80482;BME280;69797;43.864;21.410;2023-12-29T05:29:53;100734.91;;;2.70;80.54
80482;BME280;69797;43.864;21.410;2023-12-29T05:32:20;100746.78;;;2.77;80.01
80482;BME280;69797;43.864;21.410;2023-12-29T05:34:47;100721.38;;;2.70;79.92
80482;BME280;69797;43.864;21.410;2023-12-29T05:37:14;100726.66;;;2.79;79.00
80482;BME280;69797;43.864;21.410;2023-12-29T05:39:42;100738.09;;;2.91;78.61
80482;BME280;69797;43.864;21.410;2023-12-29T05:42:09;100720.25;;;2.80;77.71
80482;BME280;69797;43.864;21.410;2023-12-29T05:44:36;100750.97;;;2.97;77.86
80482;BME280;69797;43.864;21.410;2023-12-29T05:47:07;100744.88;;;2.95;77.51
80482;BME280;69797;43.864;21.410;2023-12-29T05:49:33;100752.81;;;2.97;78.18
80482;BME280;69797;43.864;21.410;2023-12-29T05:52:06;100731.63;;;2.84;78.78
80482;BME280;69797;43.864;21.410;2023-12-29T05:54:33;100755.53;;;2.97;79.14
80482;BME280;69797;43.864;21.410;2023-12-29T05:57:01;100737.16;;;2.82;78.92
80482;BME280;69797;43.864;21.410;2023-12-29T05:59:28;100754.31;;;2.91;79.36
80482;BME280;69797;43.864;21.410;2023-12-29T06:01:54;100762.75;;;2.88;79.83
80482;BME280;69797;43.864;21.410;2023-12-29T06:04:23;100771.19;;;2.85;79.71
80482;BME280;69797;43.864;21.410;2023-12-29T06:06:49;100768.00;;;2.89;79.39
80482;BME280;69797;43.864;21.410;2023-12-29T06:09:16;100774.44;;;2.88;79.42
80482;BME280;69797;43.864;21.410;2023-12-29T06:11:43;100769.84;;;2.89;78.66
80482;BME280;69797;43.864;21.410;2023-12-29T06:14:10;100774.66;;;2.95;78.49
80482;BME280;69797;43.864;21.410;2023-12-29T06:16:36;100773.94;;;2.93;77.73
80482;BME280;69797;43.864;21.410;2023-12-29T06:19:03;100748.47;;;2.78;77.74
80482;BME280;69797;43.864;21.410;2023-12-29T06:21:30;100760.34;;;2.85;77.86
80482;BME280;69797;43.864;21.410;2023-12-29T06:23:57;100771.78;;;2.97;78.59
80482;BME280;69797;43.864;21.410;2023-12-29T06:26:24;100749.44;;;2.95;77.62
80482;BME280;69797;43.864;21.410;2023-12-29T06:28:51;100771.38;;;3.09;77.28
80482;BME280;69797;43.864;21.410;2023-12-29T06:31:18;100770.50;;;3.09;77.25
80482;BME280;69797;43.864;21.410;2023-12-29T06:33:45;100750.44;;;3.20;77.47
80482;BME280;69797;43.864;21.410;2023-12-29T06:36:12;100787.91;;;3.67;77.91
80482;BME280;69797;43.864;21.410;2023-12-29T06:38:40;100773.66;;;3.99;77.27
80482;BME280;69797;43.864;21.410;2023-12-29T06:41:06;100773.25;;;4.44;76.34
80482;BME280;69797;43.864;21.410;2023-12-29T06:43:33;100774.06;;;4.86;75.49
80482;BME280;69797;43.864;21.410;2023-12-29T06:46:00;100759.78;;;5.08;75.34
80482;BME280;69797;43.864;21.410;2023-12-29T06:48:27;100773.94;;;5.59;75.13
80482;BME280;69797;43.864;21.410;2023-12-29T06:50:54;100777.63;;;6.14;73.91
80482;BME280;69797;43.864;21.410;2023-12-29T06:53:21;100760.53;;;6.51;72.57
80482;BME280;69797;43.864;21.410;2023-12-29T06:55:47;100786.63;;;7.06;70.63
80482;BME280;69797;43.864;21.410;2023-12-29T06:58:14;100781.03;;;7.37;70.21
80482;BME280;69797;43.864;21.410;2023-12-29T07:00:41;100787.88;;;7.92;69.47
80482;BME280;69797;43.864;21.410;2023-12-29T07:03:12;100750.47;;;8.23;67.87
80482;BME280;69797;43.864;21.410;2023-12-29T07:05:39;100776.81;;;8.95;65.24
80482;BME280;69797;43.864;21.410;2023-12-29T07:08:06;100779.28;;;9.39;64.32
80482;BME280;69797;43.864;21.410;2023-12-29T07:10:33;100792.19;;;9.87;60.44
80482;BME280;69797;43.864;21.410;2023-12-29T07:13:00;100774.56;;;10.02;60.26
80482;BME280;69797;43.864;21.410;2023-12-29T07:15:27;100781.03;;;10.29;62.11
80482;BME280;69797;43.864;21.410;2023-12-29T07:17:53;100783.84;;;10.63;59.48
80482;BME280;69797;43.864;21.410;2023-12-29T07:20:20;100791.69;;;11.05;59.87
80482;BME280;69797;43.864;21.410;2023-12-29T07:22:48;100748.84;;;11.38;59.39
80482;BME280;69797;43.864;21.410;2023-12-29T07:25:14;100792.63;;;12.04;56.60
80482;BME280;69797;43.864;21.410;2023-12-29T07:27:42;100809.25;;;12.61;55.78
80482;BME280;69797;43.864;21.410;2023-12-29T07:30:09;100786.41;;;12.92;56.38
80482;BME280;69797;43.864;21.410;2023-12-29T07:32:36;100797.69;;;13.40;57.02
80482;BME280;69797;43.864;21.410;2023-12-29T07:35:03;100781.81;;;13.61;56.56
80482;BME280;69797;43.864;21.410;2023-12-29T07:37:30;100782.06;;;13.78;54.23
80482;BME280;69797;43.864;21.410;2023-12-29T07:39:57;100759.72;;;13.67;54.04
80482;BME280;69797;43.864;21.410;2023-12-29T07:42:24;100783.81;;;13.90;51.36
80482;BME280;69797;43.864;21.410;2023-12-29T07:44:51;100783.28;;;14.00;53.19
80482;BME280;69797;43.864;21.410;2023-12-29T07:47:18;100756.50;;;13.89;53.15
80482;BME280;69797;43.864;21.410;2023-12-29T07:49:44;100761.53;;;14.10;54.28
80482;BME280;69797;43.864;21.410;2023-12-29T07:52:14;100785.56;;;14.22;53.06
80482;BME280;69797;43.864;21.410;2023-12-29T07:54:41;100761.63;;;14.04;50.52
80482;BME280;69797;43.864;21.410;2023-12-29T07:57:08;100779.84;;;13.86;52.56
80482;BME280;69797;43.864;21.410;2023-12-29T07:59:35;100785.25;;;13.93;53.89
80482;BME280;69797;43.864;21.410;2023-12-29T08:02:02;100790.22;;;14.21;53.14
80482;BME280;69797;43.864;21.410;2023-12-29T08:04:28;100789.84;;;14.54;54.37
80482;BME280;69797;43.864;21.410;2023-12-29T08:06:55;100779.13;;;14.88;49.17
80482;BME280;69797;43.864;21.410;2023-12-29T08:09:22;100767.53;;;15.09;54.61
80482;BME280;69797;43.864;21.410;2023-12-29T08:11:50;100784.25;;;15.62;46.59
80482;BME280;69797;43.864;21.410;2023-12-29T08:14:17;100805.00;;;16.11;53.90
80482;BME280;69797;43.864;21.410;2023-12-29T08:16:43;100780.97;;;16.40;52.35
80482;BME280;69797;43.864;21.410;2023-12-29T08:19:10;100783.41;;;16.65;51.80
80482;BME280;69797;43.864;21.410;2023-12-29T08:21:37;100781.31;;;16.84;52.42
80482;BME280;69797;43.864;21.410;2023-12-29T08:24:04;100791.38;;;17.07;48.74
80482;BME280;69797;43.864;21.410;2023-12-29T08:26:31;100792.91;;;16.98;50.89
80482;BME280;69797;43.864;21.410;2023-12-29T08:28:58;100785.31;;;16.76;53.44
80482;BME280;69797;43.864;21.410;2023-12-29T08:31:25;100756.22;;;16.45;47.88
80482;BME280;69797;43.864;21.410;2023-12-29T08:33:54;100766.47;;;16.33;52.17
80482;BME280;69797;43.864;21.410;2023-12-29T08:36:21;100809.41;;;16.24;52.07
80482;BME280;69797;43.864;21.410;2023-12-29T08:38:47;100785.00;;;15.80;52.22
80482;BME280;69797;43.864;21.410;2023-12-29T08:41:14;100787.84;;;15.39;52.79
80482;BME280;69797;43.864;21.410;2023-12-29T08:43:41;100795.59;;;15.06;54.62
80482;BME280;69797;43.864;21.410;2023-12-29T08:46:08;100801.13;;;14.64;54.30
80482;BME280;69797;43.864;21.410;2023-12-29T08:48:35;100788.53;;;14.20;54.44
80482;BME280;69797;43.864;21.410;2023-12-29T08:51:02;100790.31;;;13.78;54.05
80482;BME280;69797;43.864;21.410;2023-12-29T08:53:29;100787.53;;;13.41;53.88
80482;BME280;69797;43.864;21.410;2023-12-29T08:56:00;100779.34;;;13.03;54.05
80482;BME280;69797;43.864;21.410;2023-12-29T08:58:27;100796.00;;;12.83;54.22
80482;BME280;69797;43.864;21.410;2023-12-29T09:00:54;100784.19;;;12.44;54.66
80482;BME280;69797;43.864;21.410;2023-12-29T09:03:21;100786.22;;;12.17;54.92
80482;BME280;69797;43.864;21.410;2023-12-29T09:05:48;100792.66;;;11.97;55.57
80482;BME280;69797;43.864;21.410;2023-12-29T09:08:15;100793.75;;;11.70;56.25
80482;BME280;69797;43.864;21.410;2023-12-29T09:10:42;100782.19;;;11.48;57.19
80482;BME280;69797;43.864;21.410;2023-12-29T09:13:09;100781.75;;;11.38;56.66
80482;BME280;69797;43.864;21.410;2023-12-29T09:15:36;100771.66;;;11.25;57.04
80482;BME280;69797;43.864;21.410;2023-12-29T09:18:04;100776.09;;;11.19;57.16
80482;BME280;69797;43.864;21.410;2023-12-29T09:20:31;100765.75;;;10.95;57.58
80482;BME280;69797;43.864;21.410;2023-12-29T09:22:58;100776.72;;;10.95;58.08
80482;BME280;69797;43.864;21.410;2023-12-29T09:25:26;100776.06;;;10.79;58.29
80482;BME280;69797;43.864;21.410;2023-12-29T09:27:54;100756.84;;;10.53;59.01
80482;BME280;69797;43.864;21.410;2023-12-29T09:30:21;100772.88;;;10.56;59.72
80482;BME280;69797;43.864;21.410;2023-12-29T09:32:48;100791.81;;;10.44;59.93
80482;BME280;69797;43.864;21.410;2023-12-29T09:35:15;100764.91;;;10.13;60.82
80482;BME280;69797;43.864;21.410;2023-12-29T09:37:43;100760.06;;;10.08;60.91
80482;BME280;69797;43.864;21.410;2023-12-29T09:40:10;100756.28;;;10.09;61.00
80482;BME280;69797;43.864;21.410;2023-12-29T09:42:38;100750.38;;;10.06;61.68
80482;BME280;69797;43.864;21.410;2023-12-29T09:45:09;100754.16;;;10.05;61.20
80482;BME280;69797;43.864;21.410;2023-12-29T09:47:39;100744.88;;;9.99;61.82
80482;BME280;69797;43.864;21.410;2023-12-29T09:50:15;100754.16;;;10.05;62.21
80482;BME280;69797;43.864;21.410;2023-12-29T09:52:43;100753.31;;;10.04;62.03
80482;BME280;69797;43.864;21.410;2023-12-29T09:55:10;100760.03;;;10.02;62.27
80482;BME280;69797;43.864;21.410;2023-12-29T09:57:38;100744.22;;;9.91;62.26
80482;BME280;69797;43.864;21.410;2023-12-29T10:00:07;100757.53;;;10.00;62.48
80482;BME280;69797;43.864;21.410;2023-12-29T10:02:37;100736.47;;;10.01;63.03
80482;BME280;69797;43.864;21.410;2023-12-29T10:05:04;100731.63;;;9.96;63.57
80482;BME280;69797;43.864;21.410;2023-12-29T10:07:37;100726.34;;;10.01;64.25
80482;BME280;69797;43.864;21.410;2023-12-29T10:10:07;100732.16;;;10.26;63.14
80482;BME280;69797;43.864;21.410;2023-12-29T10:12:35;100713.34;;;10.23;63.05
80482;BME280;69797;43.864;21.410;2023-12-29T10:23:12;100675.25;;;10.22;63.18
80482;BME280;69797;43.864;21.410;2023-12-29T10:25:43;100701.81;;;10.35;63.36
80482;BME280;69797;43.864;21.410;2023-12-29T10:28:10;100704.59;;;10.48;63.47
80482;BME280;69797;43.864;21.410;2023-12-29T10:30:37;100696.59;;;10.46;63.46
80482;BME280;69797;43.864;21.410;2023-12-29T10:33:04;100678.66;;;10.44;62.77
80482;BME280;69797;43.864;21.410;2023-12-29T10:35:34;100680.78;;;10.62;62.05
80482;BME280;69797;43.864;21.410;2023-12-29T10:38:12;100679.09;;;10.67;62.65
80482;BME280;69797;43.864;21.410;2023-12-29T10:40:40;100652.56;;;10.54;61.49
80482;BME280;69797;43.864;21.410;2023-12-29T10:43:08;100675.31;;;10.75;61.48
80482;BME280;69797;43.864;21.410;2023-12-29T10:45:36;100648.94;;;10.67;61.60
80482;BME280;69797;43.864;21.410;2023-12-29T10:48:03;100684.78;;;10.92;61.81
80482;BME280;69797;43.864;21.410;2023-12-29T10:50:42;100677.63;;;10.85;61.60
80482;BME280;69797;43.864;21.410;2023-12-29T10:53:16;100655.72;;;10.71;62.14
80482;BME280;69797;43.864;21.410;2023-12-29T10:55:44;100658.66;;;10.76;62.16
80482;BME280;69797;43.864;21.410;2023-12-29T10:58:11;100650.44;;;10.83;62.77
80482;BME280;69797;43.864;21.410;2023-12-29T11:00:38;100632.28;;;10.89;61.38
80482;BME280;69797;43.864;21.410;2023-12-29T11:03:05;100642.56;;;11.07;61.95
80482;BME280;69797;43.864;21.410;2023-12-29T11:05:33;100628.25;;;11.11;63.03
80482;BME280;69797;43.864;21.410;2023-12-29T11:08:00;100654.34;;;11.34;60.99
80482;BME280;69797;43.864;21.410;2023-12-29T11:10:28;100647.78;;;11.35;60.60
80482;BME280;69797;43.864;21.410;2023-12-29T11:12:56;100662.31;;;11.42;61.09
80482;BME280;69797;43.864;21.410;2023-12-29T11:15:24;100647.75;;;11.48;61.42
80482;BME280;69797;43.864;21.410;2023-12-29T11:17:54;100623.06;;;11.48;60.78
80482;BME280;69797;43.864;21.410;2023-12-29T11:20:23;100645.59;;;11.57;61.23
80482;BME280;69797;43.864;21.410;2023-12-29T11:22:50;100646.44;;;11.57;60.53
80482;BME280;69797;43.864;21.410;2023-12-29T11:25:16;100636.72;;;11.61;60.68
80482;BME280;69797;43.864;21.410;2023-12-29T11:27:44;100612.47;;;11.58;61.16
80482;BME280;69797;43.864;21.410;2023-12-29T11:30:14;100612.19;;;11.66;60.79
80482;BME280;69797;43.864;21.410;2023-12-29T11:35:35;100606.59;;;11.93;60.56
80482;BME280;69797;43.864;21.410;2023-12-29T11:38:26;100602.75;;;12.00;60.33
80482;BME280;69797;43.864;21.410;2023-12-29T11:43:32;100593.34;;;12.15;59.52
80482;BME280;69797;43.864;21.410;2023-12-29T11:45:59;100588.69;;;12.15;59.78
80482;BME280;69797;43.864;21.410;2023-12-29T11:48:54;100587.88;;;12.15;59.39
80482;BME280;69797;43.864;21.410;2023-12-29T11:54:03;100586.13;;;12.20;59.46
80482;BME280;69797;43.864;21.410;2023-12-29T11:56:33;100588.41;;;12.23;59.58
80482;BME280;69797;43.864;21.410;2023-12-29T11:59:22;100584.78;;;12.30;59.39
80482;BME280;69797;43.864;21.410;2023-12-29T12:01:55;100572.53;;;12.32;59.30
80482;BME280;69797;43.864;21.410;2023-12-29T12:07:04;100582.09;;;12.48;59.16
80482;BME280;69797;43.864;21.410;2023-12-29T12:09:32;100562.75;;;12.36;59.21
80482;BME280;69797;43.864;21.410;2023-12-29T12:12:05;100581.25;;;12.47;58.92
80482;BME280;69797;43.864;21.410;2023-12-29T12:14:52;100556.63;;;12.34;59.21
80482;BME280;69797;43.864;21.410;2023-12-29T12:17:29;100557.22;;;12.43;59.12
80482;BME280;69797;43.864;21.410;2023-12-29T12:20:07;100580.91;;;12.62;59.01
80482;BME280;69797;43.864;21.410;2023-12-29T12:22:37;100562.34;;;12.58;58.65
80482;BME280;69797;43.864;21.410;2023-12-29T12:25:06;100568.56;;;12.71;58.76
80482;BME280;69797;43.864;21.410;2023-12-29T12:27:37;100554.06;;;12.64;58.80
80482;BME280;69797;43.864;21.410;2023-12-29T12:30:05;100572.94;;;12.79;58.66
80482;BME280;69797;43.864;21.410;2023-12-29T12:32:33;100552.84;;;12.79;58.80
80482;BME280;69797;43.864;21.410;2023-12-29T12:34:59;100561.16;;;12.90;58.33
80482;BME280;69797;43.864;21.410;2023-12-29T12:37:28;100552.69;;;12.92;58.75
80482;BME280;69797;43.864;21.410;2023-12-29T12:39:55;100558.94;;;12.99;58.17
80482;BME280;69797;43.864;21.410;2023-12-29T12:42:23;100535.13;;;12.93;57.75
80482;BME280;69797;43.864;21.410;2023-12-29T12:45:04;100550.53;;;13.12;57.99
80482;BME280;69797;43.864;21.410;2023-12-29T12:47:45;100559.09;;;13.23;57.70
80482;BME280;69797;43.864;21.410;2023-12-29T12:50:13;100542.88;;;13.14;57.36
80482;BME280;69797;43.864;21.410;2023-12-29T12:52:40;100546.50;;;13.15;57.40
80482;BME280;69797;43.864;21.410;2023-12-29T12:55:08;100549.25;;;13.15;57.21
80482;BME280;69797;43.864;21.410;2023-12-29T12:57:36;100524.91;;;13.00;57.08
80482;BME280;69797;43.864;21.410;2023-12-29T13:00:04;100534.38;;;13.04;57.25
80482;BME280;69797;43.864;21.410;2023-12-29T13:02:33;100529.53;;;13.00;57.43
80482;BME280;69797;43.864;21.410;2023-12-29T13:05:00;100540.91;;;13.03;57.91
80482;BME280;69797;43.864;21.410;2023-12-29T13:07:31;100544.75;;;13.02;57.79
80482;BME280;69797;43.864;21.410;2023-12-29T13:09:58;100548.56;;;13.01;57.70